Gouwestroom — PDGR — position and weather

sailwx.info

Track history (hours):
 
Tides and Currents Weather Stations Pressure Air Temp Water Temp Dewpoint Dewpoint Depression Visibility Wind Speed Wind Dir Waves Ship Positions

Gouwestroom

Last reported at 2017-Jan-16 15:28 UTC. Time now 2017-Jan-18 22:07 UTC.
Position N 51°49' E 004°53'.

Length 20 m; draft 2.2 m.

Type: Tug. MMSI: 246166000.

Date/timePositionNaut miles runAvg speedWind from/ knotsBaromVisibWave heightAir tempDewpointWater temp
2017-Jan-16 15:28N 51°49' E 004°53'7 7.4
2017-Jan-16 14:34N 51°49' E 004°42'5 4.5
2017-Jan-16 13:33N 51°48' E 004°35'7 6.9
2017-Jan-16 12:33N 51°51' E 004°24'7 6.9
2017-Jan-16 11:33N 51°53' E 004°14'2 2.4
2017-Jan-16 10:33N 51°56' E 004°12'0 0.1
2017-Jan-16 09:33N 51°56' E 004°12'0 0.0
2017-Jan-16 08:33N 51°56' E 004°12'0 0.0
2017-Jan-16 07:33N 51°56' E 004°12'0 0.1
2017-Jan-16 06:33N 51°56' E 004°12'2 2.1
2017-Jan-16 05:33N 51°54' E 004°14'2 2.1
2017-Jan-16 04:33N 51°52' E 004°16'2 2.0
2017-Jan-16 03:33N 51°52' E 004°19'1 0.9
2017-Jan-16 02:33N 51°52' E 004°20'6 6.0
2017-Jan-16 01:33N 51°50' E 004°30'6 5.6
2017-Jan-16 00:34N 51°48' E 004°38'3 2.5
2017-Jan-15 23:33N 51°49' E 004°42'1 1.0
2017-Jan-15 22:34N 51°50' E 004°43'6 5.7
2017-Jan-15 21:33N 51°49' E 004°53'0 0.0
2017-Jan-15 20:33N 51°49' E 004°53'0 0.0
2017-Jan-15 19:33N 51°49' E 004°53'0 0.0
2017-Jan-15 18:33N 51°49' E 004°53'0 0.0
2017-Jan-15 17:33N 51°49' E 004°53'0 0.0
2017-Jan-15 16:33N 51°49' E 004°53'0 0.0
2017-Jan-15 15:33N 51°49' E 004°53'0 0.0
2017-Jan-15 14:33N 51°49' E 004°53'0 0.0
2017-Jan-15 13:33N 51°49' E 004°53'0 0.0
2017-Jan-15 12:33N 51°49' E 004°53'0 0.0
2017-Jan-15 11:33N 51°49' E 004°53'0 0.0
2017-Jan-15 10:33N 51°49' E 004°53'0 0.0
2017-Jan-15 09:33N 51°49' E 004°53'0 0.0
2017-Jan-15 08:33N 51°49' E 004°53'0 0.0
2017-Jan-15 07:31N 51°49' E 004°53'0 0.0
2017-Jan-15 06:33N 51°49' E 004°53'0 0.0
2017-Jan-15 05:31N 51°49' E 004°53'0 0.0
2017-Jan-15 04:33N 51°49' E 004°53'0 0.0
2017-Jan-15 03:33N 51°49' E 004°53'0 0.0
2017-Jan-15 02:33N 51°49' E 004°53'0 0.0
2017-Jan-15 01:33N 51°49' E 004°53'0 0.0
2017-Jan-15 00:33N 51°49' E 004°53'0 0.0
2017-Jan-14 23:33N 51°49' E 004°53'0 0.0
2017-Jan-14 22:33N 51°49' E 004°53'0 0.0
2017-Jan-14 21:33N 51°49' E 004°53'0 0.0
2017-Jan-14 20:33N 51°49' E 004°53'0 0.0
2017-Jan-14 19:33N 51°49' E 004°53'0 0.0
2017-Jan-14 18:33N 51°49' E 004°53'0 0.0
2017-Jan-14 17:33N 51°49' E 004°53'0 0.0
2017-Jan-14 16:32N 51°49' E 004°53'0 0.0
2017-Jan-14 15:33N 51°49' E 004°53'0 0.0
2017-Jan-14 14:33N 51°49' E 004°53'0 0.0
2017-Jan-14 13:33N 51°49' E 004°53'0 0.0
2017-Jan-14 12:30N 51°49' E 004°53'0 0.0
2017-Jan-14 11:33N 51°49' E 004°53'0 0.0
2017-Jan-14 10:33N 51°49' E 004°53'0 0.0
2017-Jan-14 09:33N 51°49' E 004°53'0 0.0
2017-Jan-14 08:32N 51°49' E 004°53'0 0.0
2017-Jan-14 07:33N 51°49' E 004°53'0 0.0
2017-Jan-14 06:33N 51°49' E 004°53'0 0.0
2017-Jan-14 05:33N 51°49' E 004°53'0 0.0
2017-Jan-14 04:33N 51°49' E 004°53'0 0.0
2017-Jan-14 03:33N 51°49' E 004°53'0 0.0
2017-Jan-13 23:29N 51°49' E 004°53'0 0.0
2017-Jan-13 22:31N 51°49' E 004°53'0 0.0
2017-Jan-13 21:33N 51°49' E 004°53'0 0.0
2017-Jan-13 20:33N 51°49' E 004°53'0 0.0
2017-Jan-13 19:33N 51°49' E 004°53'0 0.0
2017-Jan-13 18:33N 51°49' E 004°53'0 0.0
2017-Jan-13 17:33N 51°49' E 004°53'0 0.0
2017-Jan-13 16:33N 51°49' E 004°53'0 0.0
2017-Jan-13 15:33N 51°49' E 004°53'0 0.0
2017-Jan-13 14:33N 51°49' E 004°53'0 0.0
2017-Jan-13 13:32N 51°49' E 004°53'0 0.0
2017-Jan-13 12:26N 51°49' E 004°53'0 0.0
2017-Jan-13 11:33N 51°49' E 004°53'0 0.0
2017-Jan-13 10:30N 51°49' E 004°53'0 0.0
2017-Jan-13 09:33N 51°49' E 004°53'0 0.0
2017-Jan-12 13:32N 51°49' E 004°53'0 0.0
2017-Jan-11 15:33N 51°49' E 004°53'0 0.0
2017-Jan-11 14:33N 51°49' E 004°53'0 0.0
2017-Jan-11 13:30N 51°49' E 004°53'6 6.0
2017-Jan-11 12:33N 51°50' E 004°43'6 5.6
2017-Jan-11 11:33N 51°49' E 004°53'0 0.0
2017-Jan-09 09:33N 51°49' E 004°53'0 0.0
2017-Jan-09 08:33N 51°49' E 004°53'0 0.0
2017-Jan-09 07:33N 51°49' E 004°53'0 0.0
2017-Jan-09 06:33N 51°49' E 004°53'0 0.0
2017-Jan-09 05:33N 51°49' E 004°53'0 0.0
2017-Jan-09 04:33N 51°49' E 004°53'0 0.0
2017-Jan-09 03:33N 51°49' E 004°53'0 0.0
2017-Jan-09 02:33N 51°49' E 004°53'0 0.0
2017-Jan-09 01:34N 51°49' E 004°53'0 0.0
2017-Jan-09 00:33N 51°49' E 004°53'0 0.0
2017-Jan-08 23:33N 51°49' E 004°53'0 0.0
2017-Jan-08 22:33N 51°49' E 004°53'0 0.0
2017-Jan-08 21:33N 51°49' E 004°53'0 0.0
2017-Jan-08 20:33N 51°49' E 004°53'0 0.0
2017-Jan-08 19:32N 51°49' E 004°53'0 0.0
2017-Jan-08 18:34N 51°49' E 004°53'0 0.0
2017-Jan-08 17:33N 51°49' E 004°53'0 0.0
2017-Jan-08 16:33N 51°49' E 004°53'0 0.0
2017-Jan-08 15:33N 51°49' E 004°53'0 0.0
2017-Jan-08 14:33N 51°49' E 004°53'0 0.0
2017-Jan-08 13:29N 51°49' E 004°53'0 0.0
2017-Jan-08 12:33N 51°49' E 004°53'0 0.0
2017-Jan-08 11:33N 51°49' E 004°53'0 0.0
2017-Jan-08 10:32N 51°49' E 004°53'0 0.0
2017-Jan-08 09:33N 51°49' E 004°53'0 0.0
2017-Jan-08 08:33N 51°49' E 004°53'0 0.0
2017-Jan-08 07:33N 51°49' E 004°53'0 0.0
2017-Jan-08 06:33N 51°49' E 004°53'0 0.0
2017-Jan-08 05:32N 51°49' E 004°53'0 0.0
2017-Jan-08 04:33N 51°49' E 004°53'0 0.0
2017-Jan-08 03:33N 51°49' E 004°53'0 0.0
2017-Jan-08 02:33N 51°49' E 004°53'0 0.0
2017-Jan-08 01:33N 51°49' E 004°53'0 0.0
2017-Jan-08 00:33N 51°49' E 004°53'0 0.0
2017-Jan-07 23:33N 51°49' E 004°53'0 0.0
2017-Jan-07 22:33N 51°49' E 004°53'0 0.0
2017-Jan-07 21:33N 51°49' E 004°53'0 0.0
2017-Jan-07 20:33N 51°49' E 004°53'0 0.0
2017-Jan-07 19:33N 51°49' E 004°53'0 0.0
2017-Jan-07 18:33N 51°49' E 004°53'0 0.0
2017-Jan-07 17:33N 51°49' E 004°53'0 0.0
2017-Jan-07 16:33N 51°49' E 004°53'0 0.0
2017-Jan-07 15:33N 51°49' E 004°53'0 0.0
2017-Jan-07 14:33N 51°49' E 004°53'0 0.0
2017-Jan-07 13:33N 51°49' E 004°53'0 0.0
2017-Jan-07 12:33N 51°49' E 004°53'0 0.0
2017-Jan-07 11:33N 51°49' E 004°53'0 0.0
2017-Jan-07 10:33N 51°49' E 004°53'0 0.0
2017-Jan-07 09:33N 51°49' E 004°53'0 0.0
2017-Jan-07 08:33N 51°49' E 004°53'0 0.0
2017-Jan-07 07:33N 51°49' E 004°53'0 0.0
2017-Jan-07 06:33N 51°49' E 004°53'0 0.0
2017-Jan-07 05:31N 51°49' E 004°53'0 0.0
2017-Jan-07 04:33N 51°49' E 004°53'0 0.0
2017-Jan-07 03:33N 51°49' E 004°53'0 0.0
2017-Jan-07 02:33N 51°49' E 004°53'0 0.0
2017-Jan-07 01:34N 51°49' E 004°53'0 0.0
2017-Jan-07 00:33N 51°49' E 004°53'0 0.0
2017-Jan-06 23:33N 51°49' E 004°53'0 0.0
2017-Jan-06 22:33N 51°49' E 004°53'0 0.0
2017-Jan-06 21:33N 51°49' E 004°53'0 0.0
2017-Jan-06 20:33N 51°49' E 004°53'0 0.0
2017-Jan-06 19:33N 51°49' E 004°53'0 0.0
2017-Jan-06 18:33N 51°49' E 004°53'0 0.0
2017-Jan-06 17:33N 51°49' E 004°53'0 0.0
2017-Jan-06 16:33N 51°49' E 004°53'0 0.0
2017-Jan-06 15:33N 51°49' E 004°53'  
Track history (hours):
 
Tides and Currents Weather Stations Pressure Air Temp Water Temp Dewpoint Dewpoint Depression Visibility Wind Speed Wind Dir Waves Ship Positions

Gouwestroom

Last reported at 2017-Jan-16 15:28 UTC. Time now 2017-Jan-18 22:07 UTC.
Position N 51°49' E 004°53'.

Length 20 m; draft 2.2 m.

Type: Tug. MMSI: 246166000.

Date/timePositionNaut miles runAvg speedWind from/ knotsBaromVisibWave heightAir tempDewpointWater temp
2017-Jan-16 15:28N 51°49' E 004°53'7 7.4
2017-Jan-16 14:34N 51°49' E 004°42'5 4.5
2017-Jan-16 13:33N 51°48' E 004°35'7 6.9
2017-Jan-16 12:33N 51°51' E 004°24'7 6.9
2017-Jan-16 11:33N 51°53' E 004°14'2 2.4
2017-Jan-16 10:33N 51°56' E 004°12'0 0.1
2017-Jan-16 09:33N 51°56' E 004°12'0 0.0
2017-Jan-16 08:33N 51°56' E 004°12'0 0.0
2017-Jan-16 07:33N 51°56' E 004°12'0 0.1
2017-Jan-16 06:33N 51°56' E 004°12'2 2.1
2017-Jan-16 05:33N 51°54' E 004°14'2 2.1
2017-Jan-16 04:33N 51°52' E 004°16'2 2.0
2017-Jan-16 03:33N 51°52' E 004°19'1 0.9
2017-Jan-16 02:33N 51°52' E 004°20'6 6.0
2017-Jan-16 01:33N 51°50' E 004°30'6 5.6
2017-Jan-16 00:34N 51°48' E 004°38'3 2.5
2017-Jan-15 23:33N 51°49' E 004°42'1 1.0
2017-Jan-15 22:34N 51°50' E 004°43'6 5.7
2017-Jan-15 21:33N 51°49' E 004°53'0 0.0
2017-Jan-15 20:33N 51°49' E 004°53'0 0.0
2017-Jan-15 19:33N 51°49' E 004°53'0 0.0
2017-Jan-15 18:33N 51°49' E 004°53'0 0.0
2017-Jan-15 17:33N 51°49' E 004°53'0 0.0
2017-Jan-15 16:33N 51°49' E 004°53'0 0.0
2017-Jan-15 15:33N 51°49' E 004°53'0 0.0
2017-Jan-15 14:33N 51°49' E 004°53'0 0.0
2017-Jan-15 13:33N 51°49' E 004°53'0 0.0
2017-Jan-15 12:33N 51°49' E 004°53'0 0.0
2017-Jan-15 11:33N 51°49' E 004°53'0 0.0
2017-Jan-15 10:33N 51°49' E 004°53'0 0.0
2017-Jan-15 09:33N 51°49' E 004°53'0 0.0
2017-Jan-15 08:33N 51°49' E 004°53'0 0.0
2017-Jan-15 07:31N 51°49' E 004°53'0 0.0
2017-Jan-15 06:33N 51°49' E 004°53'0 0.0
2017-Jan-15 05:31N 51°49' E 004°53'0 0.0
2017-Jan-15 04:33N 51°49' E 004°53'0 0.0
2017-Jan-15 03:33N 51°49' E 004°53'0 0.0
2017-Jan-15 02:33N 51°49' E 004°53'0 0.0
2017-Jan-15 01:33N 51°49' E 004°53'0 0.0
2017-Jan-15 00:33N 51°49' E 004°53'0 0.0
2017-Jan-14 23:33N 51°49' E 004°53'0 0.0
2017-Jan-14 22:33N 51°49' E 004°53'0 0.0
2017-Jan-14 21:33N 51°49' E 004°53'0 0.0
2017-Jan-14 20:33N 51°49' E 004°53'0 0.0
2017-Jan-14 19:33N 51°49' E 004°53'0 0.0
2017-Jan-14 18:33N 51°49' E 004°53'0 0.0
2017-Jan-14 17:33N 51°49' E 004°53'0 0.0
2017-Jan-14 16:32N 51°49' E 004°53'0 0.0
2017-Jan-14 15:33N 51°49' E 004°53'0 0.0
2017-Jan-14 14:33N 51°49' E 004°53'0 0.0
2017-Jan-14 13:33N 51°49' E 004°53'0 0.0
2017-Jan-14 12:30N 51°49' E 004°53'0 0.0
2017-Jan-14 11:33N 51°49' E 004°53'0 0.0
2017-Jan-14 10:33N 51°49' E 004°53'0 0.0
2017-Jan-14 09:33N 51°49' E 004°53'0 0.0
2017-Jan-14 08:32N 51°49' E 004°53'0 0.0
2017-Jan-14 07:33N 51°49' E 004°53'0 0.0
2017-Jan-14 06:33N 51°49' E 004°53'0 0.0
2017-Jan-14 05:33N 51°49' E 004°53'0 0.0
2017-Jan-14 04:33N 51°49' E 004°53'0 0.0
2017-Jan-14 03:33N 51°49' E 004°53'0 0.0
2017-Jan-13 23:29N 51°49' E 004°53'0 0.0
2017-Jan-13 22:31N 51°49' E 004°53'0 0.0
2017-Jan-13 21:33N 51°49' E 004°53'0 0.0
2017-Jan-13 20:33N 51°49' E 004°53'0 0.0
2017-Jan-13 19:33N 51°49' E 004°53'0 0.0
2017-Jan-13 18:33N 51°49' E 004°53'0 0.0
2017-Jan-13 17:33N 51°49' E 004°53'0 0.0
2017-Jan-13 16:33N 51°49' E 004°53'0 0.0
2017-Jan-13 15:33N 51°49' E 004°53'0 0.0
2017-Jan-13 14:33N 51°49' E 004°53'0 0.0
2017-Jan-13 13:32N 51°49' E 004°53'0 0.0
2017-Jan-13 12:26N 51°49' E 004°53'0 0.0
2017-Jan-13 11:33N 51°49' E 004°53'0 0.0
2017-Jan-13 10:30N 51°49' E 004°53'0 0.0
2017-Jan-13 09:33N 51°49' E 004°53'0 0.0
2017-Jan-12 13:32N 51°49' E 004°53'0 0.0
2017-Jan-11 15:33N 51°49' E 004°53'0 0.0
2017-Jan-11 14:33N 51°49' E 004°53'0 0.0
2017-Jan-11 13:30N 51°49' E 004°53'6 6.0
2017-Jan-11 12:33N 51°50' E 004°43'6 5.6
2017-Jan-11 11:33N 51°49' E 004°53'0 0.0
2017-Jan-09 09:33N 51°49' E 004°53'0 0.0
2017-Jan-09 08:33N 51°49' E 004°53'0 0.0
2017-Jan-09 07:33N 51°49' E 004°53'0 0.0
2017-Jan-09 06:33N 51°49' E 004°53'0 0.0
2017-Jan-09 05:33N 51°49' E 004°53'0 0.0
2017-Jan-09 04:33N 51°49' E 004°53'0 0.0
2017-Jan-09 03:33N 51°49' E 004°53'0 0.0
2017-Jan-09 02:33N 51°49' E 004°53'0 0.0
2017-Jan-09 01:34N 51°49' E 004°53'0 0.0
2017-Jan-09 00:33N 51°49' E 004°53'0 0.0
2017-Jan-08 23:33N 51°49' E 004°53'0 0.0
2017-Jan-08 22:33N 51°49' E 004°53'0 0.0
2017-Jan-08 21:33N 51°49' E 004°53'0 0.0
2017-Jan-08 20:33N 51°49' E 004°53'0 0.0
2017-Jan-08 19:32N 51°49' E 004°53'0 0.0
2017-Jan-08 18:34N 51°49' E 004°53'0 0.0
2017-Jan-08 17:33N 51°49' E 004°53'0 0.0
2017-Jan-08 16:33N 51°49' E 004°53'0 0.0
2017-Jan-08 15:33N 51°49' E 004°53'0 0.0
2017-Jan-08 14:33N 51°49' E 004°53'0 0.0
2017-Jan-08 13:29N 51°49' E 004°53'0 0.0
2017-Jan-08 12:33N 51°49' E 004°53'0 0.0
2017-Jan-08 11:33N 51°49' E 004°53'0 0.0
2017-Jan-08 10:32N 51°49' E 004°53'0 0.0
2017-Jan-08 09:33N 51°49' E 004°53'0 0.0
2017-Jan-08 08:33N 51°49' E 004°53'0 0.0
2017-Jan-08 07:33N 51°49' E 004°53'0 0.0
2017-Jan-08 06:33N 51°49' E 004°53'0 0.0
2017-Jan-08 05:32N 51°49' E 004°53'0 0.0
2017-Jan-08 04:33N 51°49' E 004°53'0 0.0
2017-Jan-08 03:33N 51°49' E 004°53'0 0.0
2017-Jan-08 02:33N 51°49' E 004°53'0 0.0
2017-Jan-08 01:33N 51°49' E 004°53'0 0.0
2017-Jan-08 00:33N 51°49' E 004°53'0 0.0
2017-Jan-07 23:33N 51°49' E 004°53'0 0.0
2017-Jan-07 22:33N 51°49' E 004°53'0 0.0
2017-Jan-07 21:33N 51°49' E 004°53'0 0.0
2017-Jan-07 20:33N 51°49' E 004°53'0 0.0
2017-Jan-07 19:33N 51°49' E 004°53'0 0.0
2017-Jan-07 18:33N 51°49' E 004°53'0 0.0
2017-Jan-07 17:33N 51°49' E 004°53'0 0.0
2017-Jan-07 16:33N 51°49' E 004°53'0 0.0
2017-Jan-07 15:33N 51°49' E 004°53'0 0.0
2017-Jan-07 14:33N 51°49' E 004°53'0 0.0
2017-Jan-07 13:33N 51°49' E 004°53'0 0.0
2017-Jan-07 12:33N 51°49' E 004°53'0 0.0
2017-Jan-07 11:33N 51°49' E 004°53'0 0.0
2017-Jan-07 10:33N 51°49' E 004°53'0 0.0
2017-Jan-07 09:33N 51°49' E 004°53'0 0.0
2017-Jan-07 08:33N 51°49' E 004°53'0 0.0
2017-Jan-07 07:33N 51°49' E 004°53'0 0.0
2017-Jan-07 06:33N 51°49' E 004°53'0 0.0
2017-Jan-07 05:31N 51°49' E 004°53'0 0.0
2017-Jan-07 04:33N 51°49' E 004°53'0 0.0
2017-Jan-07 03:33N 51°49' E 004°53'0 0.0
2017-Jan-07 02:33N 51°49' E 004°53'0 0.0
2017-Jan-07 01:34N 51°49' E 004°53'0 0.0
2017-Jan-07 00:33N 51°49' E 004°53'0 0.0
2017-Jan-06 23:33N 51°49' E 004°53'0 0.0
2017-Jan-06 22:33N 51°49' E 004°53'0 0.0
2017-Jan-06 21:33N 51°49' E 004°53'0 0.0
2017-Jan-06 20:33N 51°49' E 004°53'0 0.0
2017-Jan-06 19:33N 51°49' E 004°53'0 0.0
2017-Jan-06 18:33N 51°49' E 004°53'0 0.0
2017-Jan-06 17:33N 51°49' E 004°53'0 0.0
2017-Jan-06 16:33N 51°49' E 004°53'0 0.0
2017-Jan-06 15:33N 51°49' E 004°53'  

Dump ship's entire track history